sensor_id;sensor_type;location;lat;lon;timestamp;P1;durP1;ratioP1;P2;durP2;ratioP2
20084;SDS011;10202;48.474;9.138;2023-06-26T00:00:28;9.20;;;5.85;;
20084;SDS011;10202;48.474;9.138;2023-06-26T00:02:53;8.75;;;5.90;;
20084;SDS011;10202;48.474;9.138;2023-06-26T00:05:21;10.98;;;6.10;;
20084;SDS011;10202;48.474;9.138;2023-06-26T00:08:00;9.88;;;6.57;;
20084;SDS011;10202;48.474;9.138;2023-06-26T00:10:34;12.73;;;6.53;;
20084;SDS011;10202;48.474;9.138;2023-06-26T00:13:04;8.05;;;6.20;;
20084;SDS011;10202;48.474;9.138;2023-06-26T00:15:31;8.77;;;6.05;;
20084;SDS011;10202;48.474;9.138;2023-06-26T00:17:59;8.73;;;6.40;;
20084;SDS011;10202;48.474;9.138;2023-06-26T00:20:27;8.95;;;5.93;;
20084;SDS011;10202;48.474;9.138;2023-06-26T00:22:52;10.80;;;6.20;;
20084;SDS011;10202;48.474;9.138;2023-06-26T00:25:20;9.85;;;6.38;;
20084;SDS011;10202;48.474;9.138;2023-06-26T00:27:48;22.67;;;6.35;;
20084;SDS011;10202;48.474;9.138;2023-06-26T00:30:16;16.23;;;6.68;;
20084;SDS011;10202;48.474;9.138;2023-06-26T00:32:46;14.20;;;7.07;;
20084;SDS011;10202;48.474;9.138;2023-06-26T00:35:16;8.13;;;5.93;;
20084;SDS011;10202;48.474;9.138;2023-06-26T00:37:43;8.98;;;6.45;;
20084;SDS011;10202;48.474;9.138;2023-06-26T00:40:09;9.27;;;6.55;;
20084;SDS011;10202;48.474;9.138;2023-06-26T00:42:37;9.40;;;6.55;;
20084;SDS011;10202;48.474;9.138;2023-06-26T00:45:05;9.52;;;6.60;;
20084;SDS011;10202;48.474;9.138;2023-06-26T00:47:34;9.00;;;6.72;;
20084;SDS011;10202;48.474;9.138;2023-06-26T00:50:02;10.65;;;6.30;;
20084;SDS011;10202;48.474;9.138;2023-06-26T00:52:29;12.60;;;6.70;;
20084;SDS011;10202;48.474;9.138;2023-06-26T00:55:00;9.52;;;6.32;;
20084;SDS011;10202;48.474;9.138;2023-06-26T00:57:26;9.52;;;6.45;;
20084;SDS011;10202;48.474;9.138;2023-06-26T00:59:58;8.07;;;6.25;;
20084;SDS011;10202;48.474;9.138;2023-06-26T01:02:29;10.85;;;6.60;;
20084;SDS011;10202;48.474;9.138;2023-06-26T01:04:59;8.82;;;6.50;;
20084;SDS011;10202;48.474;9.138;2023-06-26T01:07:28;9.23;;;6.47;;
20084;SDS011;10202;48.474;9.138;2023-06-26T01:09:54;13.68;;;6.95;;
20084;SDS011;10202;48.474;9.138;2023-06-26T01:12:25;12.40;;;6.53;;
20084;SDS011;10202;48.474;9.138;2023-06-26T01:14:51;10.32;;;6.80;;
20084;SDS011;10202;48.474;9.138;2023-06-26T01:17:19;11.38;;;6.47;;
20084;SDS011;10202;48.474;9.138;2023-06-26T01:19:48;10.85;;;6.45;;
20084;SDS011;10202;48.474;9.138;2023-06-26T01:28:09;9.27;;;6.13;;
20084;SDS011;10202;48.474;9.138;2023-06-26T01:30:44;9.65;;;6.53;;
20084;SDS011;10202;48.474;9.138;2023-06-26T01:33:13;8.52;;;6.35;;
20084;SDS011;10202;48.474;9.138;2023-06-26T01:35:39;8.82;;;6.43;;
20084;SDS011;10202;48.474;9.138;2023-06-26T01:38:13;8.80;;;6.45;;
20084;SDS011;10202;48.474;9.138;2023-06-26T01:40:44;7.97;;;6.32;;
20084;SDS011;10202;48.474;9.138;2023-06-26T01:55:32;10.50;;;6.10;;
20084;SDS011;10202;48.474;9.138;2023-06-26T01:58:10;9.38;;;6.47;;
20084;SDS011;10202;48.474;9.138;2023-06-26T02:00:41;8.45;;;6.43;;
20084;SDS011;10202;48.474;9.138;2023-06-26T02:03:09;10.40;;;6.57;;
20084;SDS011;10202;48.474;9.138;2023-06-26T02:05:38;9.70;;;6.63;;
20084;SDS011;10202;48.474;9.138;2023-06-26T02:08:05;8.52;;;6.05;;
20084;SDS011;10202;48.474;9.138;2023-06-26T02:10:33;8.68;;;6.40;;
20084;SDS011;10202;48.474;9.138;2023-06-26T02:12:59;7.68;;;5.65;;
20084;SDS011;10202;48.474;9.138;2023-06-26T02:15:28;13.75;;;6.35;;
20084;SDS011;10202;48.474;9.138;2023-06-26T02:17:53;8.82;;;6.32;;
20084;SDS011;10202;48.474;9.138;2023-06-26T02:20:19;10.05;;;6.50;;
20084;SDS011;10202;48.474;9.138;2023-06-26T02:22:44;11.55;;;6.93;;
20084;SDS011;10202;48.474;9.138;2023-06-26T02:25:14;8.60;;;6.53;;
20084;SDS011;10202;48.474;9.138;2023-06-26T02:27:42;9.20;;;7.00;;
20084;SDS011;10202;48.474;9.138;2023-06-26T02:30:11;9.32;;;6.60;;
20084;SDS011;10202;48.474;9.138;2023-06-26T02:32:39;9.65;;;6.93;;
20084;SDS011;10202;48.474;9.138;2023-06-26T02:35:07;10.02;;;6.97;;
20084;SDS011;10202;48.474;9.138;2023-06-26T02:37:40;11.02;;;7.07;;
20084;SDS011;10202;48.474;9.138;2023-06-26T02:40:08;10.25;;;7.10;;
20084;SDS011;10202;48.474;9.138;2023-06-26T02:42:36;11.73;;;7.25;;
20084;SDS011;10202;48.474;9.138;2023-06-26T02:45:05;9.27;;;6.50;;
20084;SDS011;10202;48.474;9.138;2023-06-26T02:47:36;11.13;;;7.38;;
20084;SDS011;10202;48.474;9.138;2023-06-26T02:50:08;9.18;;;6.88;;
20084;SDS011;10202;48.474;9.138;2023-06-26T02:52:54;9.13;;;6.72;;
20084;SDS011;10202;48.474;9.138;2023-06-26T02:55:23;11.75;;;6.97;;
20084;SDS011;10202;48.474;9.138;2023-06-26T02:57:54;9.55;;;7.32;;
20084;SDS011;10202;48.474;9.138;2023-06-26T03:00:21;10.88;;;7.32;;
20084;SDS011;10202;48.474;9.138;2023-06-26T03:02:51;8.70;;;6.30;;
20084;SDS011;10202;48.474;9.138;2023-06-26T03:05:21;8.93;;;6.40;;
20084;SDS011;10202;48.474;9.138;2023-06-26T03:07:49;11.35;;;6.72;;
20084;SDS011;10202;48.474;9.138;2023-06-26T03:10:20;13.27;;;6.88;;
20084;SDS011;10202;48.474;9.138;2023-06-26T03:12:48;8.82;;;6.68;;
20084;SDS011;10202;48.474;9.138;2023-06-26T03:15:15;9.18;;;6.50;;
20084;SDS011;10202;48.474;9.138;2023-06-26T03:17:44;10.43;;;6.80;;
20084;SDS011;10202;48.474;9.138;2023-06-26T03:20:20;9.45;;;7.03;;
20084;SDS011;10202;48.474;9.138;2023-06-26T03:22:48;9.88;;;6.55;;
20084;SDS011;10202;48.474;9.138;2023-06-26T03:25:15;10.18;;;7.07;;
20084;SDS011;10202;48.474;9.138;2023-06-26T03:27:41;9.77;;;6.65;;
20084;SDS011;10202;48.474;9.138;2023-06-26T03:30:10;10.40;;;6.60;;
20084;SDS011;10202;48.474;9.138;2023-06-26T03:32:41;10.10;;;6.22;;
20084;SDS011;10202;48.474;9.138;2023-06-26T03:35:07;7.85;;;6.05;;
20084;SDS011;10202;48.474;9.138;2023-06-26T03:37:37;9.02;;;6.70;;
20084;SDS011;10202;48.474;9.138;2023-06-26T03:40:07;9.50;;;6.40;;
20084;SDS011;10202;48.474;9.138;2023-06-26T03:42:36;10.38;;;6.93;;
20084;SDS011;10202;48.474;9.138;2023-06-26T03:45:04;9.18;;;6.57;;
20084;SDS011;10202;48.474;9.138;2023-06-26T03:47:34;8.68;;;6.55;;
20084;SDS011;10202;48.474;9.138;2023-06-26T03:50:02;12.23;;;6.25;;
20084;SDS011;10202;48.474;9.138;2023-06-26T03:52:33;9.27;;;6.63;;
20084;SDS011;10202;48.474;9.138;2023-06-26T03:55:03;9.38;;;6.82;;
20084;SDS011;10202;48.474;9.138;2023-06-26T03:57:32;9.13;;;6.78;;
20084;SDS011;10202;48.474;9.138;2023-06-26T04:00:02;11.68;;;6.18;;
20084;SDS011;10202;48.474;9.138;2023-06-26T04:02:40;9.13;;;6.07;;
20084;SDS011;10202;48.474;9.138;2023-06-26T04:05:10;8.85;;;6.13;;
20084;SDS011;10202;48.474;9.138;2023-06-26T04:07:38;7.68;;;6.00;;
20084;SDS011;10202;48.474;9.138;2023-06-26T04:10:05;14.13;;;6.75;;
20084;SDS011;10202;48.474;9.138;2023-06-26T04:12:32;12.23;;;6.63;;
20084;SDS011;10202;48.474;9.138;2023-06-26T04:15:00;9.00;;;6.60;;
20084;SDS011;10202;48.474;9.138;2023-06-26T04:17:28;8.73;;;6.40;;
20084;SDS011;10202;48.474;9.138;2023-06-26T04:19:54;9.20;;;6.60;;
20084;SDS011;10202;48.474;9.138;2023-06-26T04:22:19;9.38;;;6.20;;
20084;SDS011;10202;48.474;9.138;2023-06-26T04:24:47;10.45;;;6.72;;
20084;SDS011;10202;48.474;9.138;2023-06-26T04:27:15;9.48;;;6.32;;
20084;SDS011;10202;48.474;9.138;2023-06-26T04:29:40;8.68;;;6.75;;
20084;SDS011;10202;48.474;9.138;2023-06-26T04:32:08;9.68;;;6.20;;
20084;SDS011;10202;48.474;9.138;2023-06-26T04:34:34;11.52;;;6.68;;
20084;SDS011;10202;48.474;9.138;2023-06-26T04:37:03;8.30;;;6.05;;
20084;SDS011;10202;48.474;9.138;2023-06-26T04:39:34;12.20;;;6.43;;
20084;SDS011;10202;48.474;9.138;2023-06-26T04:42:04;9.02;;;6.43;;
20084;SDS011;10202;48.474;9.138;2023-06-26T04:44:31;9.75;;;6.53;;
20084;SDS011;10202;48.474;9.138;2023-06-26T04:46:59;10.48;;;6.75;;
20084;SDS011;10202;48.474;9.138;2023-06-26T04:49:27;10.25;;;6.25;;
20084;SDS011;10202;48.474;9.138;2023-06-26T04:51:55;8.15;;;6.30;;
20084;SDS011;10202;48.474;9.138;2023-06-26T04:54:25;11.65;;;6.38;;
20084;SDS011;10202;48.474;9.138;2023-06-26T04:56:54;8.18;;;6.28;;
20084;SDS011;10202;48.474;9.138;2023-06-26T04:59:24;8.85;;;6.28;;
20084;SDS011;10202;48.474;9.138;2023-06-26T05:01:51;8.73;;;6.43;;
20084;SDS011;10202;48.474;9.138;2023-06-26T05:04:19;10.60;;;6.68;;
20084;SDS011;10202;48.474;9.138;2023-06-26T05:06:50;8.52;;;6.35;;
20084;SDS011;10202;48.474;9.138;2023-06-26T05:09:15;10.80;;;6.20;;
20084;SDS011;10202;48.474;9.138;2023-06-26T05:11:43;9.90;;;6.38;;
20084;SDS011;10202;48.474;9.138;2023-06-26T05:14:11;8.23;;;6.25;;
20084;SDS011;10202;48.474;9.138;2023-06-26T05:16:38;8.75;;;5.95;;
20084;SDS011;10202;48.474;9.138;2023-06-26T05:19:03;9.60;;;6.55;;
20084;SDS011;10202;48.474;9.138;2023-06-26T05:21:34;9.50;;;6.38;;
20084;SDS011;10202;48.474;9.138;2023-06-26T05:24:02;9.48;;;6.35;;
20084;SDS011;10202;48.474;9.138;2023-06-26T05:26:30;11.02;;;6.93;;
20084;SDS011;10202;48.474;9.138;2023-06-26T05:28:56;8.93;;;6.50;;
20084;SDS011;10202;48.474;9.138;2023-06-26T05:31:22;9.50;;;6.82;;
20084;SDS011;10202;48.474;9.138;2023-06-26T05:33:53;9.40;;;7.05;;
20084;SDS011;10202;48.474;9.138;2023-06-26T05:36:20;12.02;;;7.13;;
20084;SDS011;10202;48.474;9.138;2023-06-26T05:38:49;13.35;;;6.82;;
20084;SDS011;10202;48.474;9.138;2023-06-26T05:41:17;8.48;;;6.60;;
20084;SDS011;10202;48.474;9.138;2023-06-26T05:43:45;10.32;;;6.15;;
20084;SDS011;10202;48.474;9.138;2023-06-26T05:46:11;9.43;;;6.93;;
20084;SDS011;10202;48.474;9.138;2023-06-26T05:48:46;9.93;;;6.85;;
20084;SDS011;10202;48.474;9.138;2023-06-26T05:51:15;9.10;;;6.50;;
20084;SDS011;10202;48.474;9.138;2023-06-26T05:53:43;11.40;;;7.28;;
20084;SDS011;10202;48.474;9.138;2023-06-26T05:56:12;9.80;;;6.55;;
20084;SDS011;10202;48.474;9.138;2023-06-26T05:58:38;7.72;;;6.47;;
20084;SDS011;10202;48.474;9.138;2023-06-26T06:01:04;10.77;;;6.88;;
20084;SDS011;10202;48.474;9.138;2023-06-26T06:03:35;14.15;;;6.95;;
20084;SDS011;10202;48.474;9.138;2023-06-26T06:06:03;12.02;;;6.78;;
20084;SDS011;10202;48.474;9.138;2023-06-26T06:08:29;10.18;;;6.55;;
20084;SDS011;10202;48.474;9.138;2023-06-26T06:10:56;11.45;;;6.25;;
20084;SDS011;10202;48.474;9.138;2023-06-26T06:13:25;8.85;;;6.78;;
20084;SDS011;10202;48.474;9.138;2023-06-26T06:15:55;8.52;;;6.03;;
20084;SDS011;10202;48.474;9.138;2023-06-26T06:18:25;10.30;;;6.57;;
20084;SDS011;10202;48.474;9.138;2023-06-26T06:20:56;10.75;;;5.95;;
20084;SDS011;10202;48.474;9.138;2023-06-26T06:23:23;13.23;;;6.50;;
20084;SDS011;10202;48.474;9.138;2023-06-26T06:25:49;9.48;;;6.35;;
20084;SDS011;10202;48.474;9.138;2023-06-26T06:28:19;10.63;;;6.25;;
20084;SDS011;10202;48.474;9.138;2023-06-26T06:30:47;8.88;;;6.25;;
20084;SDS011;10202;48.474;9.138;2023-06-26T06:33:17;16.60;;;6.40;;
20084;SDS011;10202;48.474;9.138;2023-06-26T06:35:45;9.95;;;6.30;;
20084;SDS011;10202;48.474;9.138;2023-06-26T06:38:16;9.20;;;6.05;;
20084;SDS011;10202;48.474;9.138;2023-06-26T06:40:46;8.10;;;6.25;;
20084;SDS011;10202;48.474;9.138;2023-06-26T06:43:14;12.65;;;5.93;;
20084;SDS011;10202;48.474;9.138;2023-06-26T06:45:42;8.27;;;6.25;;
20084;SDS011;10202;48.474;9.138;2023-06-26T06:48:10;10.63;;;5.78;;
20084;SDS011;10202;48.474;9.138;2023-06-26T06:50:44;8.40;;;5.97;;
20084;SDS011;10202;48.474;9.138;2023-06-26T06:53:09;7.72;;;5.68;;
20084;SDS011;10202;48.474;9.138;2023-06-26T06:55:35;8.38;;;5.55;;
20084;SDS011;10202;48.474;9.138;2023-06-26T06:58:03;8.68;;;6.40;;
20084;SDS011;10202;48.474;9.138;2023-06-26T07:00:30;10.70;;;5.80;;
20084;SDS011;10202;48.474;9.138;2023-06-26T07:02:59;8.23;;;6.05;;
20084;SDS011;10202;48.474;9.138;2023-06-26T07:05:25;13.95;;;5.63;;
20084;SDS011;10202;48.474;9.138;2023-06-26T07:07:53;8.93;;;5.60;;
20084;SDS011;10202;48.474;9.138;2023-06-26T07:10:18;9.13;;;6.00;;
20084;SDS011;10202;48.474;9.138;2023-06-26T07:12:46;7.93;;;5.90;;
20084;SDS011;10202;48.474;9.138;2023-06-26T07:15:12;9.38;;;5.57;;
20084;SDS011;10202;48.474;9.138;2023-06-26T07:17:40;7.72;;;5.28;;
20084;SDS011;10202;48.474;9.138;2023-06-26T07:20:05;10.48;;;6.13;;
20084;SDS011;10202;48.474;9.138;2023-06-26T07:22:35;6.75;;;5.68;;
20084;SDS011;10202;48.474;9.138;2023-06-26T07:25:08;7.32;;;5.78;;
20084;SDS011;10202;48.474;9.138;2023-06-26T07:27:37;9.48;;;5.22;;
20084;SDS011;10202;48.474;9.138;2023-06-26T07:30:03;7.20;;;5.55;;
20084;SDS011;10202;48.474;9.138;2023-06-26T07:32:29;6.35;;;5.35;;
20084;SDS011;10202;48.474;9.138;2023-06-26T07:34:57;7.70;;;6.20;;
20084;SDS011;10202;48.474;9.138;2023-06-26T07:37:26;7.22;;;6.00;;
20084;SDS011;10202;48.474;9.138;2023-06-26T07:39:54;6.22;;;5.53;;
20084;SDS011;10202;48.474;9.138;2023-06-26T07:42:21;20.80;;;7.07;;
20084;SDS011;10202;48.474;9.138;2023-06-26T07:44:47;6.53;;;5.78;;
20084;SDS011;10202;48.474;9.138;2023-06-26T07:47:15;6.70;;;5.63;;
20084;SDS011;10202;48.474;9.138;2023-06-26T07:49:42;8.15;;;5.63;;
20084;SDS011;10202;48.474;9.138;2023-06-26T07:52:10;8.45;;;5.60;;
20084;SDS011;10202;48.474;9.138;2023-06-26T07:54:42;7.07;;;5.45;;
20084;SDS011;10202;48.474;9.138;2023-06-26T07:57:10;9.65;;;5.65;;
20084;SDS011;10202;48.474;9.138;2023-06-26T07:59:37;8.15;;;5.70;;
20084;SDS011;10202;48.474;9.138;2023-06-26T08:02:03;13.20;;;5.85;;
20084;SDS011;10202;48.474;9.138;2023-06-26T08:04:31;7.13;;;5.68;;
20084;SDS011;10202;48.474;9.138;2023-06-26T08:07:00;8.10;;;5.60;;
20084;SDS011;10202;48.474;9.138;2023-06-26T08:09:31;6.47;;;5.40;;
20084;SDS011;10202;48.474;9.138;2023-06-26T08:11:59;9.70;;;5.90;;
20084;SDS011;10202;48.474;9.138;2023-06-26T08:14:30;6.57;;;5.50;;
20084;SDS011;10202;48.474;9.138;2023-06-26T08:16:59;7.35;;;5.75;;
20084;SDS011;10202;48.474;9.138;2023-06-26T08:19:24;13.30;;;5.93;;
20084;SDS011;10202;48.474;9.138;2023-06-26T08:21:50;8.20;;;6.00;;
20084;SDS011;10202;48.474;9.138;2023-06-26T08:24:16;8.90;;;5.93;;
20084;SDS011;10202;48.474;9.138;2023-06-26T08:26:44;7.32;;;5.25;;
20084;SDS011;10202;48.474;9.138;2023-06-26T08:29:11;5.68;;;4.97;;
20084;SDS011;10202;48.474;9.138;2023-06-26T08:31:39;8.05;;;5.35;;
20084;SDS011;10202;48.474;9.138;2023-06-26T08:34:10;8.48;;;5.30;;
20084;SDS011;10202;48.474;9.138;2023-06-26T08:36:38;10.70;;;5.13;;
20084;SDS011;10202;48.474;9.138;2023-06-26T08:39:06;9.32;;;5.78;;
20084;SDS011;10202;48.474;9.138;2023-06-26T08:41:33;6.35;;;5.40;;
20084;SDS011;10202;48.474;9.138;2023-06-26T08:44:07;5.97;;;5.35;;
20084;SDS011;10202;48.474;9.138;2023-06-26T08:46:35;6.82;;;5.80;;
20084;SDS011;10202;48.474;9.138;2023-06-26T08:55:23;5.85;;;5.25;;
20084;SDS011;10202;48.474;9.138;2023-06-26T08:57:54;6.38;;;5.68;;
20084;SDS011;10202;48.474;9.138;2023-06-26T09:00:26;6.85;;;5.47;;
20084;SDS011;10202;48.474;9.138;2023-06-26T09:03:02;6.28;;;5.68;;
20084;SDS011;10202;48.474;9.138;2023-06-26T09:05:33;10.27;;;6.40;;
20084;SDS011;10202;48.474;9.138;2023-06-26T09:08:03;10.82;;;5.68;;
20084;SDS011;10202;48.474;9.138;2023-06-26T09:10:33;7.50;;;5.97;;
20084;SDS011;10202;48.474;9.138;2023-06-26T09:12:59;8.73;;;6.00;;
20084;SDS011;10202;48.474;9.138;2023-06-26T09:15:36;6.57;;;5.82;;
20084;SDS011;10202;48.474;9.138;2023-06-26T09:18:04;6.90;;;6.05;;
20084;SDS011;10202;48.474;9.138;2023-06-26T09:20:36;6.45;;;5.68;;
20084;SDS011;10202;48.474;9.138;2023-06-26T09:23:02;13.90;;;5.82;;
20084;SDS011;10202;48.474;9.138;2023-06-26T09:25:30;7.88;;;5.63;;
20084;SDS011;10202;48.474;9.138;2023-06-26T09:28:03;9.38;;;5.90;;
20084;SDS011;10202;48.474;9.138;2023-06-26T09:30:32;8.05;;;5.75;;
20084;SDS011;10202;48.474;9.138;2023-06-26T09:33:02;8.57;;;6.03;;
20084;SDS011;10202;48.474;9.138;2023-06-26T09:35:39;7.72;;;6.32;;
20084;SDS011;10202;48.474;9.138;2023-06-26T09:38:09;7.75;;;6.40;;
20084;SDS011;10202;48.474;9.138;2023-06-26T09:40:35;19.08;;;6.43;;
20084;SDS011;10202;48.474;9.138;2023-06-26T09:43:06;6.32;;;5.72;;
20084;SDS011;10202;48.474;9.138;2023-06-26T09:45:33;6.65;;;5.40;;
20084;SDS011;10202;48.474;9.138;2023-06-26T09:48:04;7.90;;;6.03;;
20084;SDS011;10202;48.474;9.138;2023-06-26T09:50:32;6.95;;;5.60;;
20084;SDS011;10202;48.474;9.138;2023-06-26T09:53:06;8.25;;;5.82;;
20084;SDS011;10202;48.474;9.138;2023-06-26T09:55:36;7.15;;;6.07;;
20084;SDS011;10202;48.474;9.138;2023-06-26T09:58:12;16.70;;;6.28;;
20084;SDS011;10202;48.474;9.138;2023-06-26T10:00:40;10.85;;;6.32;;
20084;SDS011;10202;48.474;9.138;2023-06-26T10:03:11;8.57;;;6.07;;
20084;SDS011;10202;48.474;9.138;2023-06-26T10:05:42;11.57;;;5.97;;
20084;SDS011;10202;48.474;9.138;2023-06-26T10:08:11;7.18;;;5.85;;
20084;SDS011;10202;48.474;9.138;2023-06-26T10:10:42;6.82;;;5.72;;
20084;SDS011;10202;48.474;9.138;2023-06-26T10:13:12;6.45;;;5.75;;
20084;SDS011;10202;48.474;9.138;2023-06-26T10:15:44;7.15;;;5.72;;
20084;SDS011;10202;48.474;9.138;2023-06-26T10:18:13;7.18;;;6.10;;
20084;SDS011;10202;48.474;9.138;2023-06-26T10:20:40;11.13;;;5.90;;
20084;SDS011;10202;48.474;9.138;2023-06-26T10:23:06;6.60;;;5.72;;
20084;SDS011;10202;48.474;9.138;2023-06-26T10:25:34;9.13;;;5.90;;
20084;SDS011;10202;48.474;9.138;2023-06-26T10:28:05;6.60;;;5.63;;
20084;SDS011;10202;48.474;9.138;2023-06-26T10:30:36;9.75;;;5.95;;
20084;SDS011;10202;48.474;9.138;2023-06-26T10:33:09;6.78;;;6.07;;
20084;SDS011;10202;48.474;9.138;2023-06-26T10:35:40;6.45;;;5.18;;
20084;SDS011;10202;48.474;9.138;2023-06-26T10:38:11;6.97;;;5.95;;
20084;SDS011;10202;48.474;9.138;2023-06-26T10:40:44;6.90;;;5.80;;
20084;SDS011;10202;48.474;9.138;2023-06-26T10:43:11;7.43;;;6.00;;
20084;SDS011;10202;48.474;9.138;2023-06-26T10:45:45;7.28;;;5.82;;
20084;SDS011;10202;48.474;9.138;2023-06-26T10:48:23;10.00;;;6.10;;
20084;SDS011;10202;48.474;9.138;2023-06-26T10:51:23;7.82;;;6.32;;
20084;SDS011;10202;48.474;9.138;2023-06-26T10:53:54;9.32;;;6.10;;
20084;SDS011;10202;48.474;9.138;2023-06-26T10:59:21;12.25;;;6.10;;
20084;SDS011;10202;48.474;9.138;2023-06-26T11:01:58;14.95;;;7.47;;
20084;SDS011;10202;48.474;9.138;2023-06-26T11:04:37;6.90;;;6.18;;
20084;SDS011;10202;48.474;9.138;2023-06-26T11:07:22;7.57;;;6.35;;
20084;SDS011;10202;48.474;9.138;2023-06-26T11:13:00;7.85;;;6.82;;
20084;SDS011;10202;48.474;9.138;2023-06-26T11:15:24;7.07;;;6.38;;
20084;SDS011;10202;48.474;9.138;2023-06-26T11:17:53;7.30;;;6.50;;
20084;SDS011;10202;48.474;9.138;2023-06-26T11:20:22;8.43;;;6.72;;
20084;SDS011;10202;48.474;9.138;2023-06-26T11:22:51;7.78;;;6.82;;
20084;SDS011;10202;48.474;9.138;2023-06-26T11:25:18;8.65;;;6.70;;
20084;SDS011;10202;48.474;9.138;2023-06-26T11:27:49;8.88;;;6.70;;
20084;SDS011;10202;48.474;9.138;2023-06-26T11:30:23;7.63;;;6.78;;
20084;SDS011;10202;48.474;9.138;2023-06-26T11:32:50;7.82;;;7.03;;
20084;SDS011;10202;48.474;9.138;2023-06-26T11:35:23;11.80;;;7.10;;
20084;SDS011;10202;48.474;9.138;2023-06-26T11:37:55;7.43;;;6.72;;
20084;SDS011;10202;48.474;9.138;2023-06-26T11:40:29;9.23;;;7.22;;
20084;SDS011;10202;48.474;9.138;2023-06-26T11:43:01;7.32;;;6.60;;
20084;SDS011;10202;48.474;9.138;2023-06-26T11:45:33;9.02;;;6.93;;
20084;SDS011;10202;48.474;9.138;2023-06-26T11:47:59;11.75;;;7.15;;
20084;SDS011;10202;48.474;9.138;2023-06-26T11:50:27;7.40;;;6.65;;
20084;SDS011;10202;48.474;9.138;2023-06-26T11:52:56;11.15;;;7.00;;
20084;SDS011;10202;48.474;9.138;2023-06-26T11:55:26;7.25;;;6.55;;
20084;SDS011;10202;48.474;9.138;2023-06-26T11:57:52;10.13;;;7.13;;
20084;SDS011;10202;48.474;9.138;2023-06-26T12:00:19;10.80;;;7.30;;
20084;SDS011;10202;48.474;9.138;2023-06-26T12:02:46;8.38;;;7.13;;
20084;SDS011;10202;48.474;9.138;2023-06-26T12:05:17;8.27;;;7.13;;
20084;SDS011;10202;48.474;9.138;2023-06-26T12:07:50;8.48;;;6.70;;
20084;SDS011;10202;48.474;9.138;2023-06-26T12:10:16;9.50;;;6.50;;
20084;SDS011;10202;48.474;9.138;2023-06-26T12:12:42;10.80;;;7.03;;
20084;SDS011;10202;48.474;9.138;2023-06-26T12:15:12;10.00;;;7.40;;
20084;SDS011;10202;48.474;9.138;2023-06-26T12:17:42;9.07;;;7.20;;
20084;SDS011;10202;48.474;9.138;2023-06-26T12:20:21;14.73;;;6.97;;
20084;SDS011;10202;48.474;9.138;2023-06-26T12:22:50;7.45;;;6.75;;
20084;SDS011;10202;48.474;9.138;2023-06-26T12:25:24;10.05;;;6.85;;
20084;SDS011;10202;48.474;9.138;2023-06-26T12:27:54;7.93;;;7.05;;
20084;SDS011;10202;48.474;9.138;2023-06-26T12:30:25;10.32;;;7.35;;
20084;SDS011;10202;48.474;9.138;2023-06-26T12:32:53;8.18;;;7.38;;
20084;SDS011;10202;48.474;9.138;2023-06-26T12:35:18;10.10;;;7.13;;
20084;SDS011;10202;48.474;9.138;2023-06-26T12:37:49;10.63;;;7.30;;
20084;SDS011;10202;48.474;9.138;2023-06-26T12:40:20;9.40;;;6.95;;
20084;SDS011;10202;48.474;9.138;2023-06-26T12:42:49;10.00;;;7.75;;
20084;SDS011;10202;48.474;9.138;2023-06-26T12:45:20;8.15;;;7.20;;
20084;SDS011;10202;48.474;9.138;2023-06-26T12:47:46;9.27;;;7.63;;
20084;SDS011;10202;48.474;9.138;2023-06-26T12:50:16;9.18;;;7.32;;
20084;SDS011;10202;48.474;9.138;2023-06-26T12:52:44;13.40;;;7.13;;
20084;SDS011;10202;48.474;9.138;2023-06-26T12:55:15;8.60;;;7.03;;
20084;SDS011;10202;48.474;9.138;2023-06-26T12:57:41;7.68;;;6.70;;
20084;SDS011;10202;48.474;9.138;2023-06-26T13:00:11;9.07;;;7.20;;
20084;SDS011;10202;48.474;9.138;2023-06-26T13:02:40;8.13;;;7.30;;
20084;SDS011;10202;48.474;9.138;2023-06-26T13:05:08;8.73;;;6.97;;
20084;SDS011;10202;48.474;9.138;2023-06-26T13:07:36;7.95;;;7.13;;
20084;SDS011;10202;48.474;9.138;2023-06-26T13:10:04;10.10;;;7.28;;
20084;SDS011;10202;48.474;9.138;2023-06-26T13:12:31;8.95;;;7.25;;
20084;SDS011;10202;48.474;9.138;2023-06-26T13:14:59;8.30;;;7.20;;
20084;SDS011;10202;48.474;9.138;2023-06-26T13:17:24;11.43;;;6.95;;
20084;SDS011;10202;48.474;9.138;2023-06-26T13:19:52;8.57;;;6.65;;
20084;SDS011;10202;48.474;9.138;2023-06-26T13:22:20;13.15;;;7.55;;
20084;SDS011;10202;48.474;9.138;2023-06-26T13:24:48;14.98;;;7.97;;
20084;SDS011;10202;48.474;9.138;2023-06-26T13:27:14;9.13;;;7.13;;
20084;SDS011;10202;48.474;9.138;2023-06-26T13:29:41;10.43;;;7.05;;
20084;SDS011;10202;48.474;9.138;2023-06-26T13:32:07;10.48;;;6.93;;
20084;SDS011;10202;48.474;9.138;2023-06-26T13:34:38;7.80;;;7.00;;
20084;SDS011;10202;48.474;9.138;2023-06-26T13:37:06;7.45;;;6.63;;
20084;SDS011;10202;48.474;9.138;2023-06-26T13:39:36;10.05;;;6.78;;
20084;SDS011;10202;48.474;9.138;2023-06-26T13:42:04;10.32;;;7.03;;
20084;SDS011;10202;48.474;9.138;2023-06-26T13:44:30;10.80;;;7.25;;
20084;SDS011;10202;48.474;9.138;2023-06-26T13:46:55;8.35;;;7.45;;
20084;SDS011;10202;48.474;9.138;2023-06-26T13:49:25;12.00;;;7.38;;
20084;SDS011;10202;48.474;9.138;2023-06-26T13:51:53;10.60;;;6.93;;
20084;SDS011;10202;48.474;9.138;2023-06-26T13:54:24;11.77;;;7.18;;
20084;SDS011;10202;48.474;9.138;2023-06-26T13:56:52;7.60;;;6.72;;
20084;SDS011;10202;48.474;9.138;2023-06-26T13:59:25;8.52;;;6.75;;
20084;SDS011;10202;48.474;9.138;2023-06-26T14:01:52;10.63;;;7.22;;
20084;SDS011;10202;48.474;9.138;2023-06-26T14:04:20;9.30;;;6.93;;
20084;SDS011;10202;48.474;9.138;2023-06-26T14:06:51;13.85;;;6.90;;
20084;SDS011;10202;48.474;9.138;2023-06-26T14:09:16;7.95;;;6.00;;
20084;SDS011;10202;48.474;9.138;2023-06-26T14:11:43;8.18;;;6.68;;
20084;SDS011;10202;48.474;9.138;2023-06-26T14:14:13;9.73;;;6.63;;
20084;SDS011;10202;48.474;9.138;2023-06-26T14:16:44;8.07;;;6.80;;
20084;SDS011;10202;48.474;9.138;2023-06-26T14:19:14;8.85;;;6.35;;
20084;SDS011;10202;48.474;9.138;2023-06-26T14:21:45;11.30;;;6.97;;
20084;SDS011;10202;48.474;9.138;2023-06-26T14:24:15;10.15;;;6.50;;
20084;SDS011;10202;48.474;9.138;2023-06-26T14:26:43;8.80;;;6.40;;
20084;SDS011;10202;48.474;9.138;2023-06-26T14:29:11;7.97;;;6.22;;
20084;SDS011;10202;48.474;9.138;2023-06-26T14:31:42;7.35;;;6.10;;
20084;SDS011;10202;48.474;9.138;2023-06-26T14:34:11;9.38;;;6.10;;
20084;SDS011;10202;48.474;9.138;2023-06-26T14:36:38;8.63;;;6.40;;
20084;SDS011;10202;48.474;9.138;2023-06-26T14:39:06;9.43;;;6.22;;
20084;SDS011;10202;48.474;9.138;2023-06-26T14:41:34;6.88;;;6.03;;
20084;SDS011;10202;48.474;9.138;2023-06-26T14:44:01;7.20;;;5.65;;
20084;SDS011;10202;48.474;9.138;2023-06-26T14:46:32;8.60;;;5.97;;
20084;SDS011;10202;48.474;9.138;2023-06-26T14:48:58;8.07;;;5.60;;
20084;SDS011;10202;48.474;9.138;2023-06-26T14:51:23;8.80;;;5.80;;
20084;SDS011;10202;48.474;9.138;2023-06-26T14:53:53;18.95;;;5.47;;
20084;SDS011;10202;48.474;9.138;2023-06-26T14:56:20;8.65;;;5.80;;
20084;SDS011;10202;48.474;9.138;2023-06-26T14:58:46;6.47;;;5.25;;
20084;SDS011;10202;48.474;9.138;2023-06-26T15:01:12;9.10;;;5.40;;
20084;SDS011;10202;48.474;9.138;2023-06-26T15:03:41;9.60;;;5.55;;
20084;SDS011;10202;48.474;9.138;2023-06-26T15:06:09;9.60;;;5.60;;
20084;SDS011;10202;48.474;9.138;2023-06-26T15:08:34;6.65;;;5.57;;
20084;SDS011;10202;48.474;9.138;2023-06-26T15:11:07;6.28;;;5.63;;
20084;SDS011;10202;48.474;9.138;2023-06-26T15:13:33;6.85;;;4.90;;
20084;SDS011;10202;48.474;9.138;2023-06-26T15:15:58;5.30;;;4.78;;
20084;SDS011;10202;48.474;9.138;2023-06-26T15:18:28;10.45;;;5.25;;
20084;SDS011;10202;48.474;9.138;2023-06-26T15:20:56;8.35;;;5.00;;
20084;SDS011;10202;48.474;9.138;2023-06-26T15:23:24;7.10;;;4.65;;